sensor_id;sensor_type;location;lat;lon;timestamp;temperature;humidity
15450;DHT22;7826;49.784;9.934;2023-03-01T00:01:18;-0.90;1.00
15450;DHT22;7826;49.784;9.934;2023-03-01T00:03:44;-0.90;1.00
15450;DHT22;7826;49.784;9.934;2023-03-01T00:06:11;-0.90;1.00
15450;DHT22;7826;49.784;9.934;2023-03-01T00:08:38;-0.90;1.00
15450;DHT22;7826;49.784;9.934;2023-03-01T00:13:36;-0.90;1.00
15450;DHT22;7826;49.784;9.934;2023-03-01T00:16:04;-1.00;1.00
15450;DHT22;7826;49.784;9.934;2023-03-01T00:18:30;-1.00;1.00
15450;DHT22;7826;49.784;9.934;2023-03-01T00:20:56;-1.00;1.00
15450;DHT22;7826;49.784;9.934;2023-03-01T00:23:23;-1.00;1.00
15450;DHT22;7826;49.784;9.934;2023-03-01T00:25:50;-1.10;1.00
15450;DHT22;7826;49.784;9.934;2023-03-01T00:28:17;-1.00;1.00
15450;DHT22;7826;49.784;9.934;2023-03-01T00:30:43;-1.10;1.00
15450;DHT22;7826;49.784;9.934;2023-03-01T00:33:10;-1.10;1.00
15450;DHT22;7826;49.784;9.934;2023-03-01T00:35:37;-1.10;1.00
15450;DHT22;7826;49.784;9.934;2023-03-01T00:38:03;-1.10;1.00
15450;DHT22;7826;49.784;9.934;2023-03-01T00:40:32;-1.60;1.00
15450;DHT22;7826;49.784;9.934;2023-03-01T00:42:59;-1.20;1.00
15450;DHT22;7826;49.784;9.934;2023-03-01T00:45:26;-1.20;1.00
15450;DHT22;7826;49.784;9.934;2023-03-01T00:47:53;-1.20;1.00
15450;DHT22;7826;49.784;9.934;2023-03-01T00:50:19;-1.20;1.00
15450;DHT22;7826;49.784;9.934;2023-03-01T00:52:46;-1.20;1.00
15450;DHT22;7826;49.784;9.934;2023-03-01T00:55:12;-1.20;1.00
15450;DHT22;7826;49.784;9.934;2023-03-01T00:57:38;-1.30;1.00
15450;DHT22;7826;49.784;9.934;2023-03-01T01:00:06;-1.30;1.00
15450;DHT22;7826;49.784;9.934;2023-03-01T01:02:33;-1.30;1.00
15450;DHT22;7826;49.784;9.934;2023-03-01T01:05:00;-1.30;1.00
15450;DHT22;7826;49.784;9.934;2023-03-01T01:07:26;-1.30;1.00
15450;DHT22;7826;49.784;9.934;2023-03-01T01:09:52;-1.40;1.00
15450;DHT22;7826;49.784;9.934;2023-03-01T01:12:18;-1.30;1.00
15450;DHT22;7826;49.784;9.934;2023-03-01T01:14:45;-1.40;1.00
15450;DHT22;7826;49.784;9.934;2023-03-01T01:17:12;-1.40;1.00
15450;DHT22;7826;49.784;9.934;2023-03-01T01:19:38;-1.40;1.00
15450;DHT22;7826;49.784;9.934;2023-03-01T01:22:04;-1.40;1.00
15450;DHT22;7826;49.784;9.934;2023-03-01T01:24:30;-1.40;1.00
15450;DHT22;7826;49.784;9.934;2023-03-01T01:26:56;-1.40;1.00
15450;DHT22;7826;49.784;9.934;2023-03-01T01:29:23;-1.40;1.00
15450;DHT22;7826;49.784;9.934;2023-03-01T01:31:49;-1.40;1.00
15450;DHT22;7826;49.784;9.934;2023-03-01T01:34:22;-1.40;1.00
15450;DHT22;7826;49.784;9.934;2023-03-01T01:36:52;-1.40;1.00
15450;DHT22;7826;49.784;9.934;2023-03-01T01:39:22;-1.40;1.00
15450;DHT22;7826;49.784;9.934;2023-03-01T01:41:49;-1.40;1.00
15450;DHT22;7826;49.784;9.934;2023-03-01T01:46:49;-1.40;1.00
15450;DHT22;7826;49.784;9.934;2023-03-01T01:49:38;-1.50;1.00
15450;DHT22;7826;49.784;9.934;2023-03-01T01:52:13;-1.50;1.00
15450;DHT22;7826;49.784;9.934;2023-03-01T01:54:59;-1.50;1.00
15450;DHT22;7826;49.784;9.934;2023-03-01T01:57:32;-1.40;1.00
15450;DHT22;7826;49.784;9.934;2023-03-01T02:00:06;-1.50;1.00
15450;DHT22;7826;49.784;9.934;2023-03-01T02:02:33;-1.50;1.00
15450;DHT22;7826;49.784;9.934;2023-03-01T02:05:35;-1.30;1.00
15450;DHT22;7826;49.784;9.934;2023-03-01T02:08:02;-1.50;1.00
15450;DHT22;7826;49.784;9.934;2023-03-01T02:10:29;-1.50;1.00
15450;DHT22;7826;49.784;9.934;2023-03-01T02:13:00;-1.50;1.00
15450;DHT22;7826;49.784;9.934;2023-03-01T02:15:26;-1.50;1.00
15450;DHT22;7826;49.784;9.934;2023-03-01T02:17:54;-1.50;1.00
15450;DHT22;7826;49.784;9.934;2023-03-01T02:20:44;-1.50;1.00
15450;DHT22;7826;49.784;9.934;2023-03-01T02:23:12;-1.50;1.00
15450;DHT22;7826;49.784;9.934;2023-03-01T02:28:38;-1.50;1.00
15450;DHT22;7826;49.784;9.934;2023-03-01T02:31:07;-1.50;1.00
15450;DHT22;7826;49.784;9.934;2023-03-01T02:33:53;-1.50;1.00
15450;DHT22;7826;49.784;9.934;2023-03-01T02:36:34;-1.50;1.00
15450;DHT22;7826;49.784;9.934;2023-03-01T02:39:04;-1.50;1.00
15450;DHT22;7826;49.784;9.934;2023-03-01T02:41:35;-1.60;1.00
15450;DHT22;7826;49.784;9.934;2023-03-01T02:44:03;-1.60;1.00
15450;DHT22;7826;49.784;9.934;2023-03-01T02:46:30;-1.60;1.00
15450;DHT22;7826;49.784;9.934;2023-03-01T02:48:57;-1.60;1.00
15450;DHT22;7826;49.784;9.934;2023-03-01T02:56:36;-1.60;1.00
15450;DHT22;7826;49.784;9.934;2023-03-01T02:59:03;-1.60;1.00
15450;DHT22;7826;49.784;9.934;2023-03-01T03:01:30;-1.60;1.00
15450;DHT22;7826;49.784;9.934;2023-03-01T03:04:07;-1.60;1.00
15450;DHT22;7826;49.784;9.934;2023-03-01T03:06:34;-1.60;1.00
15450;DHT22;7826;49.784;9.934;2023-03-01T03:09:01;-1.60;1.00
15450;DHT22;7826;49.784;9.934;2023-03-01T03:11:27;-1.60;1.00
15450;DHT22;7826;49.784;9.934;2023-03-01T03:13:54;-1.60;1.00
15450;DHT22;7826;49.784;9.934;2023-03-01T03:16:20;-1.60;1.00
15450;DHT22;7826;49.784;9.934;2023-03-01T03:18:47;-1.60;1.00
15450;DHT22;7826;49.784;9.934;2023-03-01T03:21:13;-1.60;1.00
15450;DHT22;7826;49.784;9.934;2023-03-01T03:23:39;-1.60;1.00
15450;DHT22;7826;49.784;9.934;2023-03-01T03:26:05;-1.60;1.00
15450;DHT22;7826;49.784;9.934;2023-03-01T03:28:33;-1.50;1.00
15450;DHT22;7826;49.784;9.934;2023-03-01T03:31:00;-1.60;1.00
15450;DHT22;7826;49.784;9.934;2023-03-01T03:33:30;-1.70;1.00
15450;DHT22;7826;49.784;9.934;2023-03-01T03:35:56;-1.60;1.00
15450;DHT22;7826;49.784;9.934;2023-03-01T03:38:23;-1.70;1.00
15450;DHT22;7826;49.784;9.934;2023-03-01T03:40:51;-1.70;1.00
15450;DHT22;7826;49.784;9.934;2023-03-01T03:43:19;-1.70;1.00
15450;DHT22;7826;49.784;9.934;2023-03-01T03:45:47;-1.70;1.00
15450;DHT22;7826;49.784;9.934;2023-03-01T03:48:14;-1.70;1.00
15450;DHT22;7826;49.784;9.934;2023-03-01T03:50:41;-1.70;1.00
15450;DHT22;7826;49.784;9.934;2023-03-01T03:53:12;-1.70;1.00
15450;DHT22;7826;49.784;9.934;2023-03-01T03:55:39;-1.70;1.00
15450;DHT22;7826;49.784;9.934;2023-03-01T03:58:10;-1.80;1.00
15450;DHT22;7826;49.784;9.934;2023-03-01T04:00:41;-1.70;1.00
15450;DHT22;7826;49.784;9.934;2023-03-01T04:03:08;-1.80;1.00
15450;DHT22;7826;49.784;9.934;2023-03-01T04:05:36;-1.80;1.00
15450;DHT22;7826;49.784;9.934;2023-03-01T04:08:03;-1.70;1.00
15450;DHT22;7826;49.784;9.934;2023-03-01T04:10:35;-1.80;1.00
15450;DHT22;7826;49.784;9.934;2023-03-01T04:13:04;-1.70;1.00
15450;DHT22;7826;49.784;9.934;2023-03-01T04:15:32;-1.70;1.00
15450;DHT22;7826;49.784;9.934;2023-03-01T04:17:59;-1.70;1.00
15450;DHT22;7826;49.784;9.934;2023-03-01T04:20:31;-1.80;1.00
15450;DHT22;7826;49.784;9.934;2023-03-01T04:25:50;-1.80;1.00
15450;DHT22;7826;49.784;9.934;2023-03-01T04:28:36;-1.80;1.00
15450;DHT22;7826;49.784;9.934;2023-03-01T04:31:08;-1.80;1.00
15450;DHT22;7826;49.784;9.934;2023-03-01T04:33:47;-1.80;1.00
15450;DHT22;7826;49.784;9.934;2023-03-01T04:36:16;-1.80;1.00
15450;DHT22;7826;49.784;9.934;2023-03-01T04:38:42;-1.80;1.00
15450;DHT22;7826;49.784;9.934;2023-03-01T04:41:15;-1.70;1.00
15450;DHT22;7826;49.784;9.934;2023-03-01T04:43:41;-1.70;1.00
15450;DHT22;7826;49.784;9.934;2023-03-01T04:46:11;-1.70;1.00
15450;DHT22;7826;49.784;9.934;2023-03-01T04:48:39;-1.70;1.00
15450;DHT22;7826;49.784;9.934;2023-03-01T04:51:06;-1.70;1.00
15450;DHT22;7826;49.784;9.934;2023-03-01T04:53:32;-1.70;1.00
15450;DHT22;7826;49.784;9.934;2023-03-01T04:55:59;-1.70;1.00
15450;DHT22;7826;49.784;9.934;2023-03-01T04:58:26;-1.70;1.00
15450;DHT22;7826;49.784;9.934;2023-03-01T05:00:53;-1.70;1.00
15450;DHT22;7826;49.784;9.934;2023-03-01T05:03:20;-1.70;1.00
15450;DHT22;7826;49.784;9.934;2023-03-01T05:05:49;-1.60;1.00
15450;DHT22;7826;49.784;9.934;2023-03-01T05:08:16;-1.70;1.00
15450;DHT22;7826;49.784;9.934;2023-03-01T05:10:55;-1.70;1.00
15450;DHT22;7826;49.784;9.934;2023-03-01T05:13:21;-1.70;1.00
15450;DHT22;7826;49.784;9.934;2023-03-01T05:15:56;-1.70;1.00
15450;DHT22;7826;49.784;9.934;2023-03-01T05:18:23;-1.70;1.00
15450;DHT22;7826;49.784;9.934;2023-03-01T05:20:56;-1.70;1.00
15450;DHT22;7826;49.784;9.934;2023-03-01T05:23:27;-1.80;1.00
15450;DHT22;7826;49.784;9.934;2023-03-01T05:25:53;-1.80;1.00
15450;DHT22;7826;49.784;9.934;2023-03-01T05:28:19;-1.80;1.00
15450;DHT22;7826;49.784;9.934;2023-03-01T05:30:46;-1.80;1.00
15450;DHT22;7826;49.784;9.934;2023-03-01T05:33:12;-1.80;1.00
15450;DHT22;7826;49.784;9.934;2023-03-01T05:35:45;-1.80;1.00
15450;DHT22;7826;49.784;9.934;2023-03-01T05:38:12;-1.80;1.00
15450;DHT22;7826;49.784;9.934;2023-03-01T05:40:46;-1.80;1.00
15450;DHT22;7826;49.784;9.934;2023-03-01T05:43:14;-1.80;1.00
15450;DHT22;7826;49.784;9.934;2023-03-01T05:45:41;-1.80;1.00
15450;DHT22;7826;49.784;9.934;2023-03-01T05:48:09;-1.80;1.00
15450;DHT22;7826;49.784;9.934;2023-03-01T05:50:39;-1.80;1.00
15450;DHT22;7826;49.784;9.934;2023-03-01T05:53:09;-1.80;1.00
15450;DHT22;7826;49.784;9.934;2023-03-01T05:55:36;-1.80;1.00
15450;DHT22;7826;49.784;9.934;2023-03-01T05:58:04;-1.80;1.00
15450;DHT22;7826;49.784;9.934;2023-03-01T06:00:31;-1.80;1.00
15450;DHT22;7826;49.784;9.934;2023-03-01T06:02:59;-1.80;1.00
15450;DHT22;7826;49.784;9.934;2023-03-01T06:05:26;-1.80;1.00
15450;DHT22;7826;49.784;9.934;2023-03-01T06:07:53;-1.80;1.00
15450;DHT22;7826;49.784;9.934;2023-03-01T06:10:21;-1.80;1.00
15450;DHT22;7826;49.784;9.934;2023-03-01T06:12:47;-1.80;1.00
15450;DHT22;7826;49.784;9.934;2023-03-01T06:15:15;-1.80;1.00
15450;DHT22;7826;49.784;9.934;2023-03-01T06:17:44;-1.80;1.00
15450;DHT22;7826;49.784;9.934;2023-03-01T06:20:16;-1.70;1.00
15450;DHT22;7826;49.784;9.934;2023-03-01T06:22:43;-1.70;1.00
15450;DHT22;7826;49.784;9.934;2023-03-01T06:25:11;-1.70;1.00
15450;DHT22;7826;49.784;9.934;2023-03-01T06:27:38;-1.60;1.00
15450;DHT22;7826;49.784;9.934;2023-03-01T06:30:06;-1.60;1.00
15450;DHT22;7826;49.784;9.934;2023-03-01T06:32:33;-1.60;1.00
15450;DHT22;7826;49.784;9.934;2023-03-01T06:34:59;-1.50;1.00
15450;DHT22;7826;49.784;9.934;2023-03-01T06:37:25;-1.40;1.00
15450;DHT22;7826;49.784;9.934;2023-03-01T06:39:52;-1.20;1.00
15450;DHT22;7826;49.784;9.934;2023-03-01T06:42:18;-1.10;1.00
15450;DHT22;7826;49.784;9.934;2023-03-01T06:44:44;-0.90;1.00
15450;DHT22;7826;49.784;9.934;2023-03-01T06:47:11;-0.70;1.00
15450;DHT22;7826;49.784;9.934;2023-03-01T06:49:38;-0.60;1.00
15450;DHT22;7826;49.784;9.934;2023-03-01T06:52:04;-0.40;1.00
15450;DHT22;7826;49.784;9.934;2023-03-01T06:54:30;-0.20;1.00
15450;DHT22;7826;49.784;9.934;2023-03-01T06:56:56;0.00;1.00
15450;DHT22;7826;49.784;9.934;2023-03-01T06:59:22;0.20;1.00
15450;DHT22;7826;49.784;9.934;2023-03-01T07:01:49;0.30;1.00
15450;DHT22;7826;49.784;9.934;2023-03-01T07:04:15;0.40;1.00
15450;DHT22;7826;49.784;9.934;2023-03-01T07:06:41;0.50;1.00
15450;DHT22;7826;49.784;9.934;2023-03-01T07:09:07;0.50;1.00
15450;DHT22;7826;49.784;9.934;2023-03-01T07:11:34;0.60;1.00
15450;DHT22;7826;49.784;9.934;2023-03-01T07:14:00;0.60;1.00
15450;DHT22;7826;49.784;9.934;2023-03-01T07:16:26;0.70;1.00
15450;DHT22;7826;49.784;9.934;2023-03-01T07:18:52;0.80;1.00
15450;DHT22;7826;49.784;9.934;2023-03-01T07:21:18;0.80;1.00
15450;DHT22;7826;49.784;9.934;2023-03-01T07:23:47;0.90;1.00
15450;DHT22;7826;49.784;9.934;2023-03-01T07:26:14;1.10;1.00
15450;DHT22;7826;49.784;9.934;2023-03-01T07:28:40;1.20;1.00
15450;DHT22;7826;49.784;9.934;2023-03-01T07:31:06;1.60;1.00
15450;DHT22;7826;49.784;9.934;2023-03-01T07:33:33;1.80;1.00
15450;DHT22;7826;49.784;9.934;2023-03-01T07:36:01;2.10;1.00
15450;DHT22;7826;49.784;9.934;2023-03-01T07:38:28;2.30;1.00
15450;DHT22;7826;49.784;9.934;2023-03-01T07:40:58;2.40;1.00
15450;DHT22;7826;49.784;9.934;2023-03-01T07:43:25;2.50;1.00
15450;DHT22;7826;49.784;9.934;2023-03-01T07:45:51;2.60;1.00
15450;DHT22;7826;49.784;9.934;2023-03-01T07:48:17;2.50;1.00
15450;DHT22;7826;49.784;9.934;2023-03-01T07:50:44;2.30;1.00
15450;DHT22;7826;49.784;9.934;2023-03-01T07:53:10;2.40;1.00
15450;DHT22;7826;49.784;9.934;2023-03-01T07:55:37;2.20;1.00
15450;DHT22;7826;49.784;9.934;2023-03-01T07:58:03;2.50;1.00
15450;DHT22;7826;49.784;9.934;2023-03-01T08:00:30;3.10;1.00
15450;DHT22;7826;49.784;9.934;2023-03-01T08:02:59;3.30;1.00
15450;DHT22;7826;49.784;9.934;2023-03-01T08:05:27;3.60;1.00
15450;DHT22;7826;49.784;9.934;2023-03-01T08:07:54;4.00;1.00
15450;DHT22;7826;49.784;9.934;2023-03-01T08:10:21;3.70;1.00
15450;DHT22;7826;49.784;9.934;2023-03-01T08:12:47;3.40;1.00
15450;DHT22;7826;49.784;9.934;2023-03-01T08:15:13;3.60;1.00
15450;DHT22;7826;49.784;9.934;2023-03-01T08:17:40;3.70;1.00
15450;DHT22;7826;49.784;9.934;2023-03-01T08:20:06;3.60;1.00
15450;DHT22;7826;49.784;9.934;2023-03-01T08:22:33;3.90;1.00
15450;DHT22;7826;49.784;9.934;2023-03-01T08:24:59;4.20;1.00
15450;DHT22;7826;49.784;9.934;2023-03-01T08:27:26;4.50;1.00
15450;DHT22;7826;49.784;9.934;2023-03-01T08:29:52;4.90;1.00
15450;DHT22;7826;49.784;9.934;2023-03-01T08:32:18;5.60;1.00
15450;DHT22;7826;49.784;9.934;2023-03-01T08:34:46;6.30;1.00
15450;DHT22;7826;49.784;9.934;2023-03-01T08:37:13;6.90;1.00
15450;DHT22;7826;49.784;9.934;2023-03-01T08:39:39;7.10;1.00
15450;DHT22;7826;49.784;9.934;2023-03-01T08:42:05;7.70;1.00
15450;DHT22;7826;49.784;9.934;2023-03-01T08:44:32;8.20;1.00
15450;DHT22;7826;49.784;9.934;2023-03-01T08:46:58;8.50;1.00
15450;DHT22;7826;49.784;9.934;2023-03-01T08:49:26;8.60;1.00
15450;DHT22;7826;49.784;9.934;2023-03-01T08:51:52;8.50;1.00
15450;DHT22;7826;49.784;9.934;2023-03-01T08:54:21;8.90;1.00
15450;DHT22;7826;49.784;9.934;2023-03-01T08:56:48;9.40;1.00
15450;DHT22;7826;49.784;9.934;2023-03-01T08:59:16;9.60;1.00
15450;DHT22;7826;49.784;9.934;2023-03-01T09:01:43;10.10;1.00
15450;DHT22;7826;49.784;9.934;2023-03-01T09:04:10;9.40;1.00
15450;DHT22;7826;49.784;9.934;2023-03-01T09:06:37;9.90;1.00
15450;DHT22;7826;49.784;9.934;2023-03-01T09:09:04;10.50;1.00
15450;DHT22;7826;49.784;9.934;2023-03-01T09:11:31;10.80;1.00
15450;DHT22;7826;49.784;9.934;2023-03-01T09:13:57;10.60;1.00
15450;DHT22;7826;49.784;9.934;2023-03-01T09:16:24;11.30;1.00
15450;DHT22;7826;49.784;9.934;2023-03-01T09:18:52;11.40;1.00
15450;DHT22;7826;49.784;9.934;2023-03-01T09:21:21;11.30;1.00
15450;DHT22;7826;49.784;9.934;2023-03-01T09:23:49;11.10;1.00
15450;DHT22;7826;49.784;9.934;2023-03-01T09:26:19;11.30;1.00
15450;DHT22;7826;49.784;9.934;2023-03-01T09:28:46;11.00;1.00
15450;DHT22;7826;49.784;9.934;2023-03-01T09:31:14;10.90;1.00
15450;DHT22;7826;49.784;9.934;2023-03-01T09:33:42;10.90;1.00
15450;DHT22;7826;49.784;9.934;2023-03-01T09:36:14;11.30;1.00
15450;DHT22;7826;49.784;9.934;2023-03-01T09:38:40;11.20;1.00
15450;DHT22;7826;49.784;9.934;2023-03-01T09:46:50;11.20;1.00
15450;DHT22;7826;49.784;9.934;2023-03-01T09:49:28;10.80;1.00
15450;DHT22;7826;49.784;9.934;2023-03-01T09:54:48;9.00;1.00
15450;DHT22;7826;49.784;9.934;2023-03-01T09:57:19;8.60;1.00
15450;DHT22;7826;49.784;9.934;2023-03-01T10:00:07;8.80;1.00
15450;DHT22;7826;49.784;9.934;2023-03-01T10:02:41;8.50;1.00
15450;DHT22;7826;49.784;9.934;2023-03-01T10:10:39;6.20;1.00
15450;DHT22;7826;49.784;9.934;2023-03-01T10:15:53;5.60;1.00
15450;DHT22;7826;49.784;9.934;2023-03-01T10:18:26;5.40;1.00
15450;DHT22;7826;49.784;9.934;2023-03-01T10:21:00;4.90;1.00
15450;DHT22;7826;49.784;9.934;2023-03-01T10:23:31;4.60;1.00
15450;DHT22;7826;49.784;9.934;2023-03-01T10:31:15;4.60;1.00
15450;DHT22;7826;49.784;9.934;2023-03-01T10:33:42;4.50;1.00
15450;DHT22;7826;49.784;9.934;2023-03-01T10:36:09;4.40;1.00
15450;DHT22;7826;49.784;9.934;2023-03-01T10:38:55;4.60;1.00
15450;DHT22;7826;49.784;9.934;2023-03-01T10:41:26;4.50;1.00
15450;DHT22;7826;49.784;9.934;2023-03-01T10:43:55;4.70;1.00
15450;DHT22;7826;49.784;9.934;2023-03-01T10:46:28;4.60;1.00
15450;DHT22;7826;49.784;9.934;2023-03-01T10:51:41;4.70;1.00
15450;DHT22;7826;49.784;9.934;2023-03-01T10:54:28;4.80;1.00
15450;DHT22;7826;49.784;9.934;2023-03-01T10:56:57;4.80;1.00
15450;DHT22;7826;49.784;9.934;2023-03-01T11:02:23;4.80;1.00
15450;DHT22;7826;49.784;9.934;2023-03-01T11:05:24;4.90;1.00
15450;DHT22;7826;49.784;9.934;2023-03-01T11:07:53;4.80;1.00
15450;DHT22;7826;49.784;9.934;2023-03-01T11:12:48;4.90;1.00
15450;DHT22;7826;49.784;9.934;2023-03-01T11:15:28;5.00;1.00
15450;DHT22;7826;49.784;9.934;2023-03-01T11:18:02;5.10;1.00
15450;DHT22;7826;49.784;9.934;2023-03-01T11:20:36;5.10;1.00
15450;DHT22;7826;49.784;9.934;2023-03-01T11:23:13;5.20;1.00
15450;DHT22;7826;49.784;9.934;2023-03-01T11:25:54;5.20;1.00
15450;DHT22;7826;49.784;9.934;2023-03-01T11:28:22;5.20;1.00
15450;DHT22;7826;49.784;9.934;2023-03-01T11:30:57;5.30;1.00
15450;DHT22;7826;49.784;9.934;2023-03-01T11:36:33;5.40;1.00
15450;DHT22;7826;49.784;9.934;2023-03-01T11:39:24;5.30;1.00
15450;DHT22;7826;49.784;9.934;2023-03-01T11:42:17;5.40;1.00
15450;DHT22;7826;49.784;9.934;2023-03-01T11:44:46;5.50;1.00
15450;DHT22;7826;49.784;9.934;2023-03-01T11:47:42;5.40;1.00
15450;DHT22;7826;49.784;9.934;2023-03-01T12:01:36;5.70;1.00
15450;DHT22;7826;49.784;9.934;2023-03-01T12:04:32;5.90;1.00
15450;DHT22;7826;49.784;9.934;2023-03-01T12:15:29;6.00;1.00
15450;DHT22;7826;49.784;9.934;2023-03-01T12:29:20;6.20;1.00
15450;DHT22;7826;49.784;9.934;2023-03-01T12:32:25;6.20;1.00
15450;DHT22;7826;49.784;9.934;2023-03-01T12:37:46;6.40;1.00
15450;DHT22;7826;49.784;9.934;2023-03-01T12:51:34;6.60;1.00
15450;DHT22;7826;49.784;9.934;2023-03-01T12:54:15;6.80;1.00
15450;DHT22;7826;49.784;9.934;2023-03-01T12:56:42;6.80;1.00
15450;DHT22;7826;49.784;9.934;2023-03-01T12:59:39;6.90;1.00
15450;DHT22;7826;49.784;9.934;2023-03-01T13:02:36;7.00;1.00
15450;DHT22;7826;49.784;9.934;2023-03-01T13:08:58;6.90;1.00
15450;DHT22;7826;49.784;9.934;2023-03-01T13:11:12;6.90;1.00
15450;DHT22;7826;49.784;9.934;2023-03-01T13:13:41;6.90;1.00
15450;DHT22;7826;49.784;9.934;2023-03-01T13:16:42;7.00;1.00
15450;DHT22;7826;49.784;9.934;2023-03-01T13:19:15;7.10;1.00
15450;DHT22;7826;49.784;9.934;2023-03-01T13:21:43;7.20;1.00
15450;DHT22;7826;49.784;9.934;2023-03-01T13:29:48;7.40;1.00
15450;DHT22;7826;49.784;9.934;2023-03-01T13:32:36;7.40;1.00
15450;DHT22;7826;49.784;9.934;2023-03-01T13:37:43;7.40;1.00
15450;DHT22;7826;49.784;9.934;2023-03-01T13:42:45;7.50;1.00
15450;DHT22;7826;49.784;9.934;2023-03-01T13:45:22;7.50;1.00
15450;DHT22;7826;49.784;9.934;2023-03-01T13:48:30;7.60;1.00
15450;DHT22;7826;49.784;9.934;2023-03-01T13:51:03;7.60;1.00
15450;DHT22;7826;49.784;9.934;2023-03-01T13:53:33;7.60;1.00
15450;DHT22;7826;49.784;9.934;2023-03-01T13:56:09;7.70;1.00
15450;DHT22;7826;49.784;9.934;2023-03-01T13:58:55;7.80;1.00
15450;DHT22;7826;49.784;9.934;2023-03-01T14:01:34;7.90;1.00
15450;DHT22;7826;49.784;9.934;2023-03-01T14:04:03;8.10;1.00
15450;DHT22;7826;49.784;9.934;2023-03-01T14:06:32;8.10;1.00
15450;DHT22;7826;49.784;9.934;2023-03-01T14:17:49;7.90;1.00
15450;DHT22;7826;49.784;9.934;2023-03-01T14:20:27;7.90;1.00
15450;DHT22;7826;49.784;9.934;2023-03-01T14:22:56;8.00;1.00
15450;DHT22;7826;49.784;9.934;2023-03-01T14:25:32;8.00;1.00
15450;DHT22;7826;49.784;9.934;2023-03-01T14:30:48;8.00;1.00
15450;DHT22;7826;49.784;9.934;2023-03-01T14:33:26;8.00;1.00
15450;DHT22;7826;49.784;9.934;2023-03-01T14:35:56;8.00;1.00
15450;DHT22;7826;49.784;9.934;2023-03-01T14:38:32;8.00;1.00
15450;DHT22;7826;49.784;9.934;2023-03-01T14:41:10;8.00;1.00
15450;DHT22;7826;49.784;9.934;2023-03-01T14:43:40;8.10;1.00
15450;DHT22;7826;49.784;9.934;2023-03-01T14:46:20;8.10;1.00
15450;DHT22;7826;49.784;9.934;2023-03-01T14:48:53;8.10;1.00
15450;DHT22;7826;49.784;9.934;2023-03-01T14:51:20;8.00;1.00
15450;DHT22;7826;49.784;9.934;2023-03-01T14:53:47;8.10;1.00
15450;DHT22;7826;49.784;9.934;2023-03-01T14:56:15;8.10;1.00
15450;DHT22;7826;49.784;9.934;2023-03-01T14:58:43;8.20;1.00
15450;DHT22;7826;49.784;9.934;2023-03-01T15:01:14;8.20;1.00
15450;DHT22;7826;49.784;9.934;2023-03-01T15:03:43;8.10;1.00
15450;DHT22;7826;49.784;9.934;2023-03-01T15:06:10;8.20;1.00
15450;DHT22;7826;49.784;9.934;2023-03-01T15:08:42;8.10;1.00
15450;DHT22;7826;49.784;9.934;2023-03-01T15:13:40;8.10;1.00
15450;DHT22;7826;49.784;9.934;2023-03-01T15:16:33;8.10;1.00
15450;DHT22;7826;49.784;9.934;2023-03-01T15:19:03;8.10;1.00
15450;DHT22;7826;49.784;9.934;2023-03-01T15:21:40;8.00;1.00
15450;DHT22;7826;49.784;9.934;2023-03-01T15:29:19;8.10;1.00
15450;DHT22;7826;49.784;9.934;2023-03-01T15:32:05;8.00;1.00
15450;DHT22;7826;49.784;9.934;2023-03-01T15:34:34;8.00;1.00
15450;DHT22;7826;49.784;9.934;2023-03-01T15:37:05;8.00;1.00
15450;DHT22;7826;49.784;9.934;2023-03-01T15:39:42;8.00;1.00
15450;DHT22;7826;49.784;9.934;2023-03-01T15:47:41;8.00;1.00
15450;DHT22;7826;49.784;9.934;2023-03-01T15:50:19;7.90;1.00
15450;DHT22;7826;49.784;9.934;2023-03-01T15:52:47;7.90;1.00
15450;DHT22;7826;49.784;9.934;2023-03-01T15:55:21;7.90;1.00
15450;DHT22;7826;49.784;9.934;2023-03-01T15:57:49;7.90;1.00
15450;DHT22;7826;49.784;9.934;2023-03-01T16:00:16;7.90;1.00
15450;DHT22;7826;49.784;9.934;2023-03-01T16:02:44;7.90;1.00
15450;DHT22;7826;49.784;9.934;2023-03-01T16:05:32;7.80;1.00
15450;DHT22;7826;49.784;9.934;2023-03-01T16:07:59;7.80;1.00
15450;DHT22;7826;49.784;9.934;2023-03-01T16:10:26;7.80;1.00
15450;DHT22;7826;49.784;9.934;2023-03-01T16:12:53;7.70;1.00
15450;DHT22;7826;49.784;9.934;2023-03-01T16:15:29;7.60;1.00
15450;DHT22;7826;49.784;9.934;2023-03-01T16:17:56;7.60;1.00
15450;DHT22;7826;49.784;9.934;2023-03-01T16:20:24;7.50;1.00
15450;DHT22;7826;49.784;9.934;2023-03-01T16:22:51;7.30;1.00
15450;DHT22;7826;49.784;9.934;2023-03-01T16:25:20;7.30;1.00
15450;DHT22;7826;49.784;9.934;2023-03-01T16:27:49;7.30;1.00
15450;DHT22;7826;49.784;9.934;2023-03-01T16:30:18;7.20;1.00
15450;DHT22;7826;49.784;9.934;2023-03-01T16:32:47;7.10;1.00
15450;DHT22;7826;49.784;9.934;2023-03-01T16:35:15;7.00;1.00
15450;DHT22;7826;49.784;9.934;2023-03-01T16:37:43;7.00;1.00
15450;DHT22;7826;49.784;9.934;2023-03-01T16:40:30;6.80;1.00
15450;DHT22;7826;49.784;9.934;2023-03-01T16:42:57;6.80;1.00
15450;DHT22;7826;49.784;9.934;2023-03-01T16:45:27;6.80;1.00
15450;DHT22;7826;49.784;9.934;2023-03-01T16:47:54;6.70;1.00
15450;DHT22;7826;49.784;9.934;2023-03-01T16:50:21;6.60;1.00
15450;DHT22;7826;49.784;9.934;2023-03-01T16:52:47;6.60;1.00
15450;DHT22;7826;49.784;9.934;2023-03-01T16:55:13;6.60;1.00
15450;DHT22;7826;49.784;9.934;2023-03-01T16:57:40;6.40;1.00
15450;DHT22;7826;49.784;9.934;2023-03-01T17:00:08;6.40;1.00
15450;DHT22;7826;49.784;9.934;2023-03-01T17:02:40;6.30;1.00
15450;DHT22;7826;49.784;9.934;2023-03-01T17:05:07;6.20;1.00
15450;DHT22;7826;49.784;9.934;2023-03-01T17:07:34;6.10;1.00
15450;DHT22;7826;49.784;9.934;2023-03-01T17:10:01;6.00;1.00
15450;DHT22;7826;49.784;9.934;2023-03-01T17:12:28;5.90;1.00
15450;DHT22;7826;49.784;9.934;2023-03-01T17:14:54;6.00;1.00
15450;DHT22;7826;49.784;9.934;2023-03-01T17:17:21;5.90;1.00
15450;DHT22;7826;49.784;9.934;2023-03-01T17:19:47;5.70;1.00
15450;DHT22;7826;49.784;9.934;2023-03-01T17:22:14;5.60;1.00
15450;DHT22;7826;49.784;9.934;2023-03-01T17:24:41;5.50;1.00
15450;DHT22;7826;49.784;9.934;2023-03-01T17:27:08;5.50;1.00
15450;DHT22;7826;49.784;9.934;2023-03-01T17:29:34;5.40;1.00
15450;DHT22;7826;49.784;9.934;2023-03-01T17:32:01;5.40;1.00
15450;DHT22;7826;49.784;9.934;2023-03-01T17:34:27;5.30;1.00
15450;DHT22;7826;49.784;9.934;2023-03-01T17:36:54;5.30;1.00
15450;DHT22;7826;49.784;9.934;2023-03-01T17:39:21;5.20;1.00
15450;DHT22;7826;49.784;9.934;2023-03-01T17:41:52;5.10;1.00
15450;DHT22;7826;49.784;9.934;2023-03-01T17:44:20;5.10;1.00
15450;DHT22;7826;49.784;9.934;2023-03-01T17:46:46;5.10;1.00
15450;DHT22;7826;49.784;9.934;2023-03-01T17:49:15;5.10;1.00
15450;DHT22;7826;49.784;9.934;2023-03-01T17:51:45;4.90;1.00
15450;DHT22;7826;49.784;9.934;2023-03-01T17:54:11;4.90;1.00
15450;DHT22;7826;49.784;9.934;2023-03-01T17:56:38;4.80;1.00
15450;DHT22;7826;49.784;9.934;2023-03-01T17:59:06;4.90;1.00
15450;DHT22;7826;49.784;9.934;2023-03-01T18:01:33;4.70;1.00
15450;DHT22;7826;49.784;9.934;2023-03-01T18:04:01;4.70;1.00
15450;DHT22;7826;49.784;9.934;2023-03-01T18:06:28;4.70;1.00
15450;DHT22;7826;49.784;9.934;2023-03-01T18:08:54;4.70;1.00
15450;DHT22;7826;49.784;9.934;2023-03-01T18:11:23;4.60;1.00
15450;DHT22;7826;49.784;9.934;2023-03-01T18:13:50;4.60;1.00
15450;DHT22;7826;49.784;9.934;2023-03-01T18:16:19;4.50;1.00
15450;DHT22;7826;49.784;9.934;2023-03-01T18:18:46;4.40;1.00
15450;DHT22;7826;49.784;9.934;2023-03-01T18:21:13;4.40;1.00
15450;DHT22;7826;49.784;9.934;2023-03-01T18:23:40;4.30;1.00
15450;DHT22;7826;49.784;9.934;2023-03-01T18:26:09;4.30;1.00
15450;DHT22;7826;49.784;9.934;2023-03-01T18:28:37;4.30;1.00
15450;DHT22;7826;49.784;9.934;2023-03-01T18:31:08;4.30;1.00
15450;DHT22;7826;49.784;9.934;2023-03-01T18:33:39;4.30;1.00
15450;DHT22;7826;49.784;9.934;2023-03-01T18:36:17;4.20;1.00
15450;DHT22;7826;49.784;9.934;2023-03-01T18:38:44;4.10;1.00
15450;DHT22;7826;49.784;9.934;2023-03-01T18:41:11;4.10;1.00